createdAt,value
2023-01-09T00:00:12.657Z,91.20
2023-01-09T00:02:41.996Z,91.20
2023-01-09T00:05:13.312Z,91.10
2023-01-09T00:07:42.933Z,91.30
2023-01-09T00:10:14.023Z,91.30
2023-01-09T00:12:43.700Z,91.40
2023-01-09T00:15:13.655Z,91.50
2023-01-09T00:17:43.014Z,91.50
2023-01-09T00:20:13.046Z,91.80
2023-01-09T00:22:42.482Z,91.50
2023-01-09T00:25:12.117Z,91.50
2023-01-09T00:27:41.419Z,91.60
2023-01-09T00:30:11.962Z,91.60
2023-01-09T00:32:42.040Z,91.50
2023-01-09T00:35:17.880Z,91.70
2023-01-09T00:37:47.404Z,91.80
2023-01-09T00:40:18.868Z,91.80
2023-01-09T00:42:57.914Z,91.70
2023-01-09T00:45:33.282Z,91.70
2023-01-09T00:48:14.051Z,91.60
2023-01-09T00:50:44.030Z,91.60
2023-01-09T00:53:20.107Z,91.40
2023-01-09T00:55:49.307Z,91.30
2023-01-09T00:58:19.540Z,91.30
2023-01-09T01:00:49.488Z,91.40
2023-01-09T01:03:18.662Z,91.40
2023-01-09T01:06:05.973Z,91.40
2023-01-09T01:08:35.084Z,91.30
2023-01-09T01:11:11.300Z,91.40
2023-01-09T01:13:42.616Z,91.40
2023-01-09T01:16:14.678Z,91.40
2023-01-09T01:18:44.015Z,91.30
2023-01-09T01:21:16.528Z,91.30
2023-01-09T01:23:46.205Z,91.20
2023-01-09T01:26:18.282Z,91.10
2023-01-09T01:28:49.627Z,90.90
2023-01-09T01:31:20.980Z,91.00
2023-01-09T01:33:52.754Z,90.60
2023-01-09T01:36:21.843Z,90.60
2023-01-09T01:38:51.089Z,90.60
2023-01-09T01:41:30.316Z,90.50
2023-01-09T01:44:04.353Z,90.40
2023-01-09T01:46:35.746Z,90.30
2023-01-09T01:49:21.344Z,90.30
2023-01-09T01:51:54.821Z,90.10
2023-01-09T01:54:36.387Z,90.10
2023-01-09T01:57:09.432Z,90.00
2023-01-09T01:59:54.608Z,89.70
2023-01-09T02:02:32.915Z,89.70
2023-01-09T02:05:07.585Z,89.50
2023-01-09T02:07:39.143Z,89.30
2023-01-09T02:10:09.444Z,89.20
2023-01-09T02:12:39.688Z,88.80
2023-01-09T02:15:14.751Z,88.70
2023-01-09T02:18:30.997Z,88.00
2023-01-09T02:21:26.404Z,88.30
2023-01-09T02:24:40.737Z,87.00
2023-01-09T02:27:21.823Z,87.00
2023-01-09T02:30:27.955Z,86.90
2023-01-09T02:33:20.887Z,86.90
2023-01-09T02:36:08.175Z,86.90
2023-01-09T02:39:09.158Z,86.70
2023-01-09T02:41:44.815Z,86.50
2023-01-09T02:44:28.573Z,86.00
2023-01-09T02:47:32.370Z,86.10
2023-01-09T02:50:06.199Z,86.00
2023-01-09T02:53:05.547Z,84.90
2023-01-09T02:55:54.303Z,85.10
2023-01-09T02:59:00.771Z,84.70
2023-01-09T03:02:02.237Z,84.80
2023-01-09T03:04:44.842Z,84.90
2023-01-09T03:07:37.927Z,85.00
2023-01-09T03:11:08.750Z,85.50
2023-01-09T03:13:52.447Z,85.60
2023-01-09T03:16:30.116Z,85.80
2023-01-09T03:19:01.768Z,86.20
2023-01-09T03:21:33.210Z,86.20
2023-01-09T03:24:04.091Z,85.90
2023-01-09T03:26:34.102Z,85.70
2023-01-09T03:29:03.723Z,85.40
2023-01-09T03:31:33.017Z,85.40
2023-01-09T03:34:02.283Z,85.00
2023-01-09T03:36:31.508Z,84.90
2023-01-09T03:39:00.710Z,84.80
2023-01-09T03:41:29.872Z,84.80
2023-01-09T03:43:59.038Z,84.50
2023-01-09T03:46:28.272Z,84.70
2023-01-09T03:48:57.552Z,84.40
2023-01-09T03:51:26.752Z,84.10
2023-01-09T03:53:56.046Z,84.20
2023-01-09T03:56:26.521Z,84.30
2023-01-09T03:58:57.028Z,84.20
2023-01-09T04:01:26.349Z,84.70
2023-01-09T04:03:55.600Z,84.80
2023-01-09T04:06:25.022Z,84.40
2023-01-09T04:08:54.175Z,84.30
2023-01-09T04:11:23.511Z,84.40
2023-01-09T04:13:52.748Z,84.30
2023-01-09T04:16:22.087Z,84.20
2023-01-09T04:18:51.304Z,84.00
2023-01-09T04:21:22.053Z,84.10
2023-01-09T04:23:51.352Z,83.80
2023-01-09T04:26:20.619Z,83.60
2023-01-09T04:28:50.082Z,83.60
2023-01-09T04:31:19.267Z,83.80
2023-01-09T04:33:48.518Z,84.10
2023-01-09T04:36:17.708Z,83.80
2023-01-09T04:38:46.868Z,83.70
2023-01-09T04:41:36.122Z,83.60
2023-01-09T04:44:05.578Z,82.80
2023-01-09T04:46:34.807Z,82.20
2023-01-09T04:49:04.089Z,82.00
2023-01-09T04:51:33.365Z,82.20
2023-01-09T04:54:02.611Z,82.70
2023-01-09T04:56:31.966Z,82.90
2023-01-09T04:59:01.851Z,83.10
2023-01-09T05:01:31.159Z,82.00
2023-01-09T05:04:00.519Z,81.60
2023-01-09T05:06:30.022Z,81.40
2023-01-09T05:08:59.592Z,81.10
2023-01-09T05:11:29.536Z,81.50
2023-01-09T05:13:58.668Z,80.90
2023-01-09T05:16:27.750Z,80.90
2023-01-09T05:18:58.185Z,80.70
2023-01-09T05:21:27.652Z,80.50
2023-01-09T05:23:56.776Z,79.50
2023-01-09T05:26:26.240Z,79.50
2023-01-09T05:28:59.697Z,79.80
2023-01-09T05:31:29.633Z,80.40
2023-01-09T05:34:00.275Z,79.90
2023-01-09T05:36:29.394Z,79.30
2023-01-09T05:39:03.545Z,79.20
2023-01-09T05:41:32.620Z,79.60
2023-01-09T05:44:01.803Z,79.70
2023-01-09T05:46:30.958Z,78.70
2023-01-09T05:49:00.381Z,78.70
2023-01-09T05:51:29.505Z,78.70
2023-01-09T05:53:59.078Z,78.30
2023-01-09T05:56:28.288Z,78.30
2023-01-09T05:58:58.755Z,79.00
2023-01-09T06:01:28.033Z,79.00
2023-01-09T06:03:57.291Z,79.00
2023-01-09T06:06:27.024Z,78.40
2023-01-09T06:08:56.247Z,78.70
2023-01-09T06:11:25.414Z,78.10
2023-01-09T06:13:54.608Z,78.00
2023-01-09T06:16:23.825Z,77.80
2023-01-09T06:18:53.056Z,78.10
2023-01-09T06:21:22.265Z,78.40
2023-01-09T06:23:51.423Z,78.60
2023-01-09T06:26:20.620Z,78.90
2023-01-09T06:28:49.810Z,77.60
2023-01-09T06:31:19.059Z,77.20
2023-01-09T06:33:48.319Z,77.30
2023-01-09T06:36:17.799Z,78.00
2023-01-09T06:38:46.969Z,77.50
2023-01-09T06:41:16.170Z,77.10
2023-01-09T06:43:45.493Z,77.50
2023-01-09T06:46:14.749Z,77.90
2023-01-09T06:48:43.986Z,77.30
2023-01-09T06:51:13.167Z,77.60
2023-01-09T06:53:42.380Z,77.10
2023-01-09T06:56:11.575Z,77.60
2023-01-09T06:58:40.844Z,77.10
2023-01-09T07:01:10.337Z,77.30
2023-01-09T07:03:39.650Z,77.10
2023-01-09T07:06:09.095Z,76.80
2023-01-09T07:08:38.348Z,75.90
2023-01-09T07:11:07.655Z,76.10
2023-01-09T07:13:39.284Z,76.10
2023-01-09T07:16:09.204Z,76.30
2023-01-09T07:18:38.451Z,76.10
2023-01-09T07:21:10.782Z,76.20
2023-01-09T07:23:39.993Z,75.90
2023-01-09T07:26:09.171Z,76.00
2023-01-09T07:28:38.478Z,75.40
2023-01-09T07:31:08.589Z,75.80
2023-01-09T07:33:38.088Z,75.60
2023-01-09T07:36:07.804Z,76.00
2023-01-09T07:38:37.592Z,76.10
2023-01-09T07:41:07.185Z,76.30
2023-01-09T07:43:37.127Z,76.30
2023-01-09T07:46:07.508Z,76.20
2023-01-09T07:48:36.718Z,76.30
2023-01-09T07:51:07.178Z,76.20
2023-01-09T07:53:36.365Z,76.50
2023-01-09T07:56:05.816Z,76.90
2023-01-09T07:58:35.045Z,77.20
2023-01-09T08:01:05.572Z,77.10
2023-01-09T08:03:35.269Z,76.60
2023-01-09T08:06:08.168Z,76.80
2023-01-09T08:08:37.433Z,76.70
2023-01-09T08:11:06.675Z,77.00
2023-01-09T08:13:35.871Z,77.20
2023-01-09T08:16:05.143Z,77.50
2023-01-09T08:18:34.364Z,77.60
2023-01-09T08:21:03.455Z,77.60
2023-01-09T08:23:32.522Z,77.70
2023-01-09T08:26:01.707Z,77.70
2023-01-09T08:28:30.860Z,77.60
2023-01-09T08:31:01.101Z,77.80
2023-01-09T08:33:33.915Z,77.60
2023-01-09T08:36:03.871Z,78.20
2023-01-09T08:38:33.744Z,78.50
2023-01-09T08:41:23.207Z,78.80
2023-01-09T08:44:11.110Z,78.70
2023-01-09T08:46:58.813Z,78.50
2023-01-09T08:49:28.541Z,78.30
2023-01-09T08:51:58.320Z,78.70
2023-01-09T08:54:28.108Z,78.90
2023-01-09T08:56:57.980Z,79.20
2023-01-09T08:59:28.057Z,79.40
2023-01-09T09:01:58.781Z,79.40
2023-01-09T09:04:30.122Z,79.40
2023-01-09T09:06:59.372Z,79.20
2023-01-09T09:09:28.552Z,79.70
2023-01-09T09:11:57.778Z,79.90
2023-01-09T09:14:45.344Z,79.80
2023-01-09T09:17:14.629Z,79.90
2023-01-09T09:19:43.787Z,80.40
2023-01-09T09:22:12.941Z,80.80
2023-01-09T09:24:42.206Z,81.00
2023-01-09T09:27:11.376Z,81.10
2023-01-09T09:29:40.534Z,81.20
2023-01-09T09:32:09.759Z,81.40
2023-01-09T09:34:39.168Z,81.40
2023-01-09T09:37:08.954Z,81.20
2023-01-09T09:39:38.236Z,81.50
2023-01-09T09:42:36.015Z,81.30
2023-01-09T09:45:08.441Z,81.40
2023-01-09T09:47:57.052Z,81.40
2023-01-09T09:50:47.752Z,81.60
2023-01-09T09:53:36.905Z,81.60
2023-01-09T09:56:07.444Z,81.70
2023-01-09T09:58:47.581Z,81.90
2023-01-09T10:01:43.002Z,82.20
2023-01-09T10:04:20.027Z,82.10
2023-01-09T10:07:07.092Z,82.10
2023-01-09T10:10:01.586Z,82.50
2023-01-09T10:12:58.439Z,83.00
2023-01-09T10:16:00.030Z,83.20
2023-01-09T10:18:45.361Z,83.20
2023-01-09T10:22:07.853Z,83.20
2023-01-09T10:25:12.177Z,84.00
2023-01-09T10:28:31.015Z,83.40
2023-01-09T10:31:30.416Z,83.50
2023-01-09T10:34:11.873Z,83.60
2023-01-09T10:37:20.165Z,83.90
2023-01-09T10:40:22.003Z,84.10
2023-01-09T10:43:03.346Z,84.40
2023-01-09T10:45:56.627Z,84.70
2023-01-09T10:48:37.010Z,85.40
2023-01-09T10:51:25.321Z,85.00
2023-01-09T10:53:57.627Z,85.30
2023-01-09T10:56:38.335Z,85.60
2023-01-09T10:59:11.102Z,85.50
2023-01-09T11:01:44.312Z,85.80
2023-01-09T11:04:38.581Z,85.80
2023-01-09T11:07:33.494Z,85.80
2023-01-09T11:10:12.722Z,86.20
2023-01-09T11:12:42.758Z,86.30
2023-01-09T11:15:30.057Z,86.40
2023-01-09T11:18:23.128Z,86.40
2023-01-09T11:20:53.762Z,86.40
2023-01-09T11:23:34.979Z,86.80
2023-01-09T11:26:05.034Z,86.70
2023-01-09T11:28:34.294Z,87.00
2023-01-09T11:31:04.645Z,87.00
2023-01-09T11:33:49.201Z,87.00
2023-01-09T11:36:20.080Z,87.00
2023-01-09T11:38:56.592Z,86.70
2023-01-09T11:41:31.676Z,86.80
2023-01-09T11:44:04.109Z,87.00
2023-01-09T11:46:45.658Z,87.00
2023-01-09T11:49:25.417Z,86.80
2023-01-09T11:52:23.448Z,87.50
2023-01-09T11:55:06.503Z,87.20
2023-01-09T11:57:35.929Z,87.50
2023-01-09T12:00:27.677Z,87.70
2023-01-09T12:03:47.155Z,87.90
2023-01-09T12:06:49.407Z,88.00
2023-01-09T12:10:01.531Z,87.90
2023-01-09T12:13:00.527Z,87.90
2023-01-09T12:15:41.793Z,88.10
2023-01-09T12:18:33.127Z,88.40
2023-01-09T12:21:30.265Z,88.70
2023-01-09T12:24:23.401Z,88.40
2023-01-09T12:27:01.167Z,89.60
2023-01-09T12:29:38.933Z,90.00
2023-01-09T12:32:33.725Z,90.00
2023-01-09T12:35:42.483Z,90.10
2023-01-09T12:38:41.553Z,90.20
2023-01-09T12:41:23.831Z,90.40
2023-01-09T12:44:34.623Z,90.50
2023-01-09T12:47:34.680Z,90.60
2023-01-09T12:50:20.112Z,90.60
2023-01-09T12:53:23.113Z,90.80
2023-01-09T12:56:20.388Z,90.90
2023-01-09T12:59:01.871Z,90.90
2023-01-09T13:01:47.388Z,91.00
2023-01-09T13:04:35.809Z,91.00
2023-01-09T13:07:21.624Z,91.20
2023-01-09T13:10:34.566Z,91.30
2023-01-09T13:13:19.816Z,91.40
2023-01-09T13:16:12.006Z,91.90
2023-01-09T13:18:53.414Z,91.70
2023-01-09T13:21:23.284Z,91.70
2023-01-09T13:24:22.203Z,91.90
2023-01-09T13:27:21.215Z,92.00
2023-01-09T13:30:03.157Z,92.30
2023-01-09T13:32:59.650Z,92.20
2023-01-09T13:35:29.153Z,92.30
2023-01-09T13:37:58.720Z,92.30
2023-01-09T13:40:39.333Z,92.40
2023-01-09T13:43:15.710Z,92.50
2023-01-09T13:45:58.819Z,92.60
2023-01-09T13:48:40.692Z,92.70
2023-01-09T13:51:48.347Z,92.70
2023-01-09T13:55:01.912Z,92.60
2023-01-09T13:57:46.676Z,92.80
2023-01-09T14:00:22.453Z,92.90
2023-01-09T14:03:18.313Z,93.00
2023-01-09T14:05:52.625Z,93.10
2023-01-09T14:08:27.256Z,93.10
2023-01-09T14:11:04.399Z,93.20
2023-01-09T14:13:46.119Z,93.20
2023-01-09T14:16:24.751Z,93.40
2023-01-09T14:19:02.536Z,93.30
2023-01-09T14:21:58.276Z,93.30
2023-01-09T14:24:34.964Z,93.30
2023-01-09T14:27:04.385Z,93.40
2023-01-09T14:29:33.518Z,93.40
2023-01-09T14:32:24.227Z,93.40
2023-01-09T14:35:20.579Z,93.40
2023-01-09T14:38:06.459Z,93.40
2023-01-09T14:40:47.284Z,93.50
2023-01-09T14:44:06.142Z,93.50
2023-01-09T14:46:39.989Z,93.40
2023-01-09T14:49:26.509Z,93.50
2023-01-09T14:51:59.780Z,93.60
2023-01-09T14:54:35.423Z,93.60
2023-01-09T14:57:05.037Z,93.60
2023-01-09T14:59:36.440Z,93.60
2023-01-09T15:02:05.772Z,93.70
2023-01-09T15:04:42.431Z,93.60
2023-01-09T15:07:26.897Z,94.00
2023-01-09T15:10:06.782Z,93.60
2023-01-09T15:12:36.865Z,93.70
2023-01-09T15:15:09.560Z,93.70
2023-01-09T15:17:40.340Z,93.60
2023-01-09T15:20:21.889Z,93.70
2023-01-09T15:22:54.597Z,93.70
2023-01-09T15:25:40.393Z,93.70
2023-01-09T15:28:29.968Z,93.60
2023-01-09T15:31:15.959Z,93.50
2023-01-09T15:33:48.696Z,93.60
2023-01-09T15:36:31.854Z,93.70
2023-01-09T15:39:01.930Z,93.60
2023-01-09T15:41:51.677Z,93.60
2023-01-09T15:44:29.420Z,93.60
2023-01-09T15:47:03.305Z,93.60
2023-01-09T15:49:34.703Z,93.60
2023-01-09T15:52:05.602Z,93.50
2023-01-09T15:54:36.240Z,93.60
2023-01-09T15:57:26.892Z,93.60
2023-01-09T15:59:59.308Z,93.60
2023-01-09T16:02:47.243Z,93.60
2023-01-09T16:05:18.877Z,93.70
2023-01-09T16:07:50.475Z,93.70
2023-01-09T16:11:01.954Z,93.60
2023-01-09T16:13:36.255Z,93.50
2023-01-09T16:16:06.115Z,93.70
2023-01-09T16:18:50.733Z,93.70
2023-01-09T16:21:35.155Z,93.70
2023-01-09T16:24:49.548Z,93.80
2023-01-09T16:27:26.980Z,93.70
2023-01-09T16:30:09.740Z,93.80
2023-01-09T16:32:52.346Z,93.90
2023-01-09T16:35:27.104Z,93.90
2023-01-09T16:37:56.489Z,94.00
2023-01-09T16:40:28.196Z,94.40
2023-01-09T16:43:02.581Z,94.20
2023-01-09T16:45:36.507Z,94.40
2023-01-09T16:48:22.631Z,94.50
2023-01-09T16:50:51.891Z,94.50
2023-01-09T16:53:26.657Z,94.50
2023-01-09T16:55:56.425Z,94.60
2023-01-09T16:58:36.392Z,94.60
2023-01-09T17:01:06.538Z,94.60
2023-01-09T17:03:35.695Z,94.60
2023-01-09T17:06:07.240Z,94.60
2023-01-09T17:08:39.593Z,94.70
2023-01-09T17:11:35.906Z,94.80
2023-01-09T17:14:05.265Z,94.80
2023-01-09T17:16:39.824Z,94.80
2023-01-09T17:19:14.902Z,94.90
2023-01-09T17:21:44.059Z,94.90
2023-01-09T17:24:31.457Z,95.30
2023-01-09T17:27:21.566Z,94.90
2023-01-09T17:29:50.847Z,95.00
2023-01-09T17:32:21.332Z,95.10
2023-01-09T17:34:50.472Z,95.10
2023-01-09T17:37:21.002Z,95.10
2023-01-09T17:39:50.177Z,95.20
2023-01-09T17:51:32.576Z,95.10
2023-01-09T17:54:01.767Z,95.20
2023-01-09T17:56:36.158Z,95.20
2023-01-09T17:59:07.260Z,95.30
2023-01-09T18:01:37.704Z,95.30
2023-01-09T18:04:07.026Z,95.30
2023-01-09T18:06:40.087Z,95.30
2023-01-09T18:09:11.883Z,95.30
2023-01-09T18:11:42.837Z,95.20
2023-01-09T18:14:13.859Z,95.30
2023-01-09T18:16:43.308Z,95.30
2023-01-09T18:19:12.915Z,95.40
2023-01-09T18:21:42.083Z,95.40
2023-01-09T18:24:11.458Z,95.40
2023-01-09T18:26:40.683Z,95.40
2023-01-09T18:29:12.319Z,95.40
2023-01-09T18:31:41.642Z,95.40
2023-01-09T18:34:12.081Z,95.50
2023-01-09T18:36:41.426Z,95.50
2023-01-09T18:39:12.855Z,95.50
2023-01-09T18:41:42.076Z,95.60
2023-01-09T18:44:11.553Z,95.60
2023-01-09T18:46:43.087Z,95.70
2023-01-09T18:49:12.424Z,95.70
2023-01-09T18:51:41.958Z,95.80
2023-01-09T18:54:12.700Z,95.80
2023-01-09T18:56:42.305Z,95.80
2023-01-09T18:59:13.319Z,95.80
2023-01-09T19:01:42.524Z,95.90
2023-01-09T19:04:11.792Z,95.90
2023-01-09T19:06:41.029Z,95.90
2023-01-09T19:09:10.246Z,96.00
2023-01-09T19:11:39.455Z,96.00
2023-01-09T19:14:08.705Z,96.00
2023-01-09T19:16:37.949Z,96.00
2023-01-09T19:19:09.496Z,96.10
2023-01-09T19:21:38.775Z,96.10
2023-01-09T19:24:08.418Z,96.10
2023-01-09T19:26:37.676Z,96.10
2023-01-09T19:29:06.847Z,96.20
2023-01-09T19:31:36.283Z,96.20
2023-01-09T19:34:05.501Z,96.20
2023-01-09T19:36:35.076Z,96.10
2023-01-09T19:39:06.235Z,96.20
2023-01-09T19:41:35.409Z,96.20
2023-01-09T19:44:04.948Z,96.20
2023-01-09T19:46:36.376Z,96.10
2023-01-09T19:49:07.035Z,96.20
2023-01-09T19:51:36.521Z,96.20
2023-01-09T19:56:41.603Z,96.20
2023-01-09T19:59:13.205Z,96.30
2023-01-09T20:01:43.484Z,96.30
2023-01-09T20:04:18.342Z,96.30
2023-01-09T20:06:50.811Z,96.30
2023-01-09T20:09:28.314Z,96.30
2023-01-09T20:11:57.675Z,96.40
2023-01-09T20:14:26.947Z,96.40
2023-01-09T20:17:00.865Z,96.50
2023-01-09T20:19:31.110Z,96.50
2023-01-09T20:22:01.937Z,96.70
2023-01-09T20:24:31.337Z,96.70
2023-01-09T20:27:01.661Z,96.70
2023-01-09T20:29:30.840Z,96.80
2023-01-09T20:32:00.747Z,96.80
2023-01-09T20:34:29.944Z,96.90
2023-01-09T20:36:59.050Z,96.90
2023-01-09T20:39:28.180Z,96.90
2023-01-09T20:41:57.467Z,96.90
2023-01-09T20:44:26.722Z,97.00
2023-01-09T20:46:55.910Z,96.90
2023-01-09T20:49:25.149Z,96.90
2023-01-09T20:51:55.052Z,96.80
2023-01-09T20:54:24.605Z,96.90
2023-01-09T20:56:54.604Z,96.90
2023-01-09T20:59:24.491Z,96.90
2023-01-09T21:01:53.978Z,96.90
2023-01-09T21:04:23.229Z,96.90
2023-01-09T21:06:52.434Z,97.00
2023-01-09T21:09:21.817Z,97.10
2023-01-09T21:11:50.934Z,97.20
2023-01-09T21:14:21.055Z,97.20
2023-01-09T21:16:54.981Z,97.30
2023-01-09T21:19:24.996Z,97.30
2023-01-09T21:21:54.134Z,97.30
2023-01-09T21:24:23.301Z,97.40
2023-01-09T21:26:52.405Z,97.40
2023-01-09T21:29:21.536Z,97.40
2023-01-09T21:31:50.674Z,97.50
2023-01-09T21:34:21.758Z,97.60
2023-01-09T21:36:51.269Z,97.60
2023-01-09T21:39:22.283Z,97.70
2023-01-09T21:42:09.528Z,98.00
2023-01-09T21:44:57.124Z,97.70
2023-01-09T21:47:26.345Z,97.70
2023-01-09T21:49:55.448Z,97.70
2023-01-09T21:52:26.623Z,97.70
2023-01-09T21:54:56.812Z,97.80
2023-01-09T21:57:26.362Z,97.90
2023-01-09T21:59:55.615Z,97.90
2023-01-09T22:02:24.860Z,97.90
2023-01-09T22:04:54.540Z,97.90
2023-01-09T22:07:23.726Z,97.80
2023-01-09T22:09:53.530Z,97.80
2023-01-09T22:12:22.770Z,97.80
2023-01-09T22:14:51.900Z,97.80
2023-01-09T22:17:21.128Z,97.80
2023-01-09T22:19:50.440Z,97.80
2023-01-09T22:22:19.674Z,97.70
2023-01-09T22:24:49.102Z,97.70
2023-01-09T22:27:18.421Z,97.70
2023-01-09T22:29:47.850Z,97.70
2023-01-09T22:32:17.150Z,97.70
2023-01-09T22:34:46.457Z,97.80
2023-01-09T22:37:16.501Z,97.80
2023-01-09T22:39:46.303Z,97.80
2023-01-09T22:42:17.726Z,97.80
2023-01-09T22:44:47.043Z,97.70
2023-01-09T22:47:16.225Z,97.70
2023-01-09T22:49:52.707Z,97.80
2023-01-09T22:52:23.061Z,97.70
2023-01-09T22:54:52.271Z,97.70
2023-01-09T22:57:21.524Z,97.70
2023-01-09T22:59:51.080Z,97.80
2023-01-09T23:02:20.784Z,97.70
2023-01-09T23:04:49.974Z,97.70
2023-01-09T23:07:19.495Z,97.80
2023-01-09T23:09:48.755Z,97.80
2023-01-09T23:12:17.979Z,97.90
2023-01-09T23:14:47.225Z,97.80
2023-01-09T23:17:16.439Z,97.80
2023-01-09T23:19:45.665Z,97.80
2023-01-09T23:22:14.933Z,97.70
2023-01-09T23:24:44.045Z,97.70
2023-01-09T23:27:13.328Z,97.70
2023-01-09T23:29:42.596Z,97.70
2023-01-09T23:32:14.933Z,97.80
2023-01-09T23:34:44.096Z,97.80
2023-01-09T23:37:13.364Z,97.80
2023-01-09T23:39:42.621Z,97.80
2023-01-09T23:42:34.046Z,98.10
2023-01-09T23:45:03.426Z,97.90
2023-01-09T23:47:32.541Z,97.90
2023-01-09T23:50:01.721Z,97.90
2023-01-09T23:52:31.056Z,98.00
2023-01-09T23:55:11.945Z,98.10
2023-01-09T23:57:41.321Z,98.10
